Atlanta, Indiana
Current Conditions -  °F | °C
As of 3:55 AM on Saturday 29 Nov 2014 (Local Time) from KTYQ Reporting Station
Clear Clear  
Wind Chill: -3°   Ceiling: Unl
Heat Index:   Visibility: 10mi
Dew Point: -5°   Wind: 8mph
Humidity: 66%   Direction: 170°S
Pressure: 29.94"   Gusts: NA
Location:  40.22°N, 86.03°W
Report Text: KTYQ 290855Z AUTO 17007KT 10SM CLR 01/M05 A2994 RMK AO2 T00051051
Loading
Personal Weather Stations






























Interactive Weather Map New forecast layout! Learn more

10-Day Weather Forecast

Advertisements
Track Severe Weather on mobile